sensor_id;sensor_type;location;lat;lon;timestamp;temperature;humidity
24618;DHT22;12762;51.730;5.356;2022-10-04T00:01:57;13.90;76.20
24618;DHT22;12762;51.730;5.356;2022-10-04T00:05:07;13.80;76.10
24618;DHT22;12762;51.730;5.356;2022-10-04T00:07:44;13.80;75.90
24618;DHT22;12762;51.730;5.356;2022-10-04T00:10:20;13.80;76.30
24618;DHT22;12762;51.730;5.356;2022-10-04T00:13:23;13.80;77.10
24618;DHT22;12762;51.730;5.356;2022-10-04T00:15:48;13.80;76.40
24618;DHT22;12762;51.730;5.356;2022-10-04T00:18:29;13.80;76.40
24618;DHT22;12762;51.730;5.356;2022-10-04T00:21:00;13.70;76.30
24618;DHT22;12762;51.730;5.356;2022-10-04T00:26:12;13.70;76.50
24618;DHT22;12762;51.730;5.356;2022-10-04T00:28:44;13.70;76.60
24618;DHT22;12762;51.730;5.356;2022-10-04T00:31:15;13.60;76.60
24618;DHT22;12762;51.730;5.356;2022-10-04T00:36:44;13.60;76.50
24618;DHT22;12762;51.730;5.356;2022-10-04T00:39:15;13.60;76.80
24618;DHT22;12762;51.730;5.356;2022-10-04T00:44:27;13.50;76.90
24618;DHT22;12762;51.730;5.356;2022-10-04T00:46:56;13.40;77.00
24618;DHT22;12762;51.730;5.356;2022-10-04T00:49:28;13.40;77.10
24618;DHT22;12762;51.730;5.356;2022-10-04T00:52:12;13.40;77.10
24618;DHT22;12762;51.730;5.356;2022-10-04T00:54:43;13.40;77.20
24618;DHT22;12762;51.730;5.356;2022-10-04T00:57:19;13.40;77.30
24618;DHT22;12762;51.730;5.356;2022-10-04T01:00:03;13.30;77.20
24618;DHT22;12762;51.730;5.356;2022-10-04T01:03:11;13.30;77.30
24618;DHT22;12762;51.730;5.356;2022-10-04T01:05:43;13.30;77.10
24618;DHT22;12762;51.730;5.356;2022-10-04T01:08:27;13.30;77.30
24618;DHT22;12762;51.730;5.356;2022-10-04T01:11:09;13.20;77.20
24618;DHT22;12762;51.730;5.356;2022-10-04T01:13:40;13.20;77.40
24618;DHT22;12762;51.730;5.356;2022-10-04T01:16:22;13.20;77.30
24618;DHT22;12762;51.730;5.356;2022-10-04T01:18:50;13.20;77.40
24618;DHT22;12762;51.730;5.356;2022-10-04T01:29:15;13.10;77.60
24618;DHT22;12762;51.730;5.356;2022-10-04T01:31:45;13.10;77.80
24618;DHT22;12762;51.730;5.356;2022-10-04T01:34:26;13.10;77.80
24618;DHT22;12762;51.730;5.356;2022-10-04T01:36:56;13.10;77.90
24618;DHT22;12762;51.730;5.356;2022-10-04T01:39:24;13.10;77.90
24618;DHT22;12762;51.730;5.356;2022-10-04T01:41:59;13.10;77.90
24618;DHT22;12762;51.730;5.356;2022-10-04T01:44:32;13.10;78.00
24618;DHT22;12762;51.730;5.356;2022-10-04T01:47:07;13.10;78.00
24618;DHT22;12762;51.730;5.356;2022-10-04T01:49:37;13.10;78.00
24618;DHT22;12762;51.730;5.356;2022-10-04T01:52:27;13.10;78.10
24618;DHT22;12762;51.730;5.356;2022-10-04T01:55:12;13.10;78.00
24618;DHT22;12762;51.730;5.356;2022-10-04T01:57:48;13.10;78.00
24618;DHT22;12762;51.730;5.356;2022-10-04T02:00:16;13.10;78.00
24618;DHT22;12762;51.730;5.356;2022-10-04T02:03:06;13.00;78.00
24618;DHT22;12762;51.730;5.356;2022-10-04T02:05:41;13.10;78.00
24618;DHT22;12762;51.730;5.356;2022-10-04T02:08:13;13.00;78.10
24618;DHT22;12762;51.730;5.356;2022-10-04T02:10:42;13.00;78.20
24618;DHT22;12762;51.730;5.356;2022-10-04T02:13:13;13.00;78.20
24618;DHT22;12762;51.730;5.356;2022-10-04T02:15:46;12.90;78.10
24618;DHT22;12762;51.730;5.356;2022-10-04T02:18:17;13.00;78.20
24618;DHT22;12762;51.730;5.356;2022-10-04T02:20:47;12.90;78.20
24618;DHT22;12762;51.730;5.356;2022-10-04T02:23:19;12.90;78.20
24618;DHT22;12762;51.730;5.356;2022-10-04T02:25:47;12.90;78.20
24618;DHT22;12762;51.730;5.356;2022-10-04T02:28:14;12.90;78.20
24618;DHT22;12762;51.730;5.356;2022-10-04T02:30:44;12.90;78.20
24618;DHT22;12762;51.730;5.356;2022-10-04T02:33:37;12.80;78.20
24618;DHT22;12762;51.730;5.356;2022-10-04T02:36:05;12.80;78.10
24618;DHT22;12762;51.730;5.356;2022-10-04T02:38:36;12.80;78.20
24618;DHT22;12762;51.730;5.356;2022-10-04T02:41:30;12.70;78.20
24618;DHT22;12762;51.730;5.356;2022-10-04T02:47:06;12.70;78.20
24618;DHT22;12762;51.730;5.356;2022-10-04T02:49:57;12.60;78.00
24618;DHT22;12762;51.730;5.356;2022-10-04T02:52:37;12.60;78.00
24618;DHT22;12762;51.730;5.356;2022-10-04T02:55:23;12.60;78.90
24618;DHT22;12762;51.730;5.356;2022-10-04T02:57:53;12.50;78.00
24618;DHT22;12762;51.730;5.356;2022-10-04T03:00:26;12.50;78.20
24618;DHT22;12762;51.730;5.356;2022-10-04T03:03:29;12.50;78.20
24618;DHT22;12762;51.730;5.356;2022-10-04T03:06:06;12.40;78.00
24618;DHT22;12762;51.730;5.356;2022-10-04T03:08:48;12.40;78.20
24618;DHT22;12762;51.730;5.356;2022-10-04T03:11:17;12.40;78.30
24618;DHT22;12762;51.730;5.356;2022-10-04T03:13:48;12.30;78.30
24618;DHT22;12762;51.730;5.356;2022-10-04T03:16:17;12.30;78.50
24618;DHT22;12762;51.730;5.356;2022-10-04T03:18:46;12.20;78.40
24618;DHT22;12762;51.730;5.356;2022-10-04T03:21:15;12.20;78.60
24618;DHT22;12762;51.730;5.356;2022-10-04T03:23:44;12.20;78.70
24618;DHT22;12762;51.730;5.356;2022-10-04T03:26:25;12.10;78.70
24618;DHT22;12762;51.730;5.356;2022-10-04T03:28:55;12.10;78.70
24618;DHT22;12762;51.730;5.356;2022-10-04T03:31:23;12.10;78.80
24618;DHT22;12762;51.730;5.356;2022-10-04T03:33:54;12.10;79.70
24618;DHT22;12762;51.730;5.356;2022-10-04T03:36:23;12.00;78.80
24618;DHT22;12762;51.730;5.356;2022-10-04T03:38:53;12.00;78.80
24618;DHT22;12762;51.730;5.356;2022-10-04T03:41:22;12.00;78.80
24618;DHT22;12762;51.730;5.356;2022-10-04T03:43:53;12.00;78.90
24618;DHT22;12762;51.730;5.356;2022-10-04T03:46:20;11.90;78.90
24618;DHT22;12762;51.730;5.356;2022-10-04T03:48:52;11.90;79.00
24618;DHT22;12762;51.730;5.356;2022-10-04T03:51:24;11.90;79.20
24618;DHT22;12762;51.730;5.356;2022-10-04T03:53:54;11.80;79.20
24618;DHT22;12762;51.730;5.356;2022-10-04T03:56:28;11.80;80.00
24618;DHT22;12762;51.730;5.356;2022-10-04T03:59:00;11.80;79.30
24618;DHT22;12762;51.730;5.356;2022-10-04T04:05:00;11.70;79.30
24618;DHT22;12762;51.730;5.356;2022-10-04T04:10:25;11.60;79.40
24618;DHT22;12762;51.730;5.356;2022-10-04T04:15:43;11.60;79.50
24618;DHT22;12762;51.730;5.356;2022-10-04T04:18:21;11.60;79.50
24618;DHT22;12762;51.730;5.356;2022-10-04T04:20:49;11.50;79.50
24618;DHT22;12762;51.730;5.356;2022-10-04T04:23:42;11.50;79.70
24618;DHT22;12762;51.730;5.356;2022-10-04T04:26:39;11.50;79.50
24618;DHT22;12762;51.730;5.356;2022-10-04T04:29:42;11.50;79.60
24618;DHT22;12762;51.730;5.356;2022-10-04T04:32:21;11.40;79.60
24618;DHT22;12762;51.730;5.356;2022-10-04T04:35:01;11.40;79.70
24618;DHT22;12762;51.730;5.356;2022-10-04T04:37:34;11.40;79.90
24618;DHT22;12762;51.730;5.356;2022-10-04T04:40:30;11.40;80.00
24618;DHT22;12762;51.730;5.356;2022-10-04T04:42:59;11.40;79.70
24618;DHT22;12762;51.730;5.356;2022-10-04T04:45:32;11.40;80.00
24618;DHT22;12762;51.730;5.356;2022-10-04T04:48:00;11.40;80.10
24618;DHT22;12762;51.730;5.356;2022-10-04T04:50:34;11.40;80.20
24618;DHT22;12762;51.730;5.356;2022-10-04T04:53:21;11.40;80.30
24618;DHT22;12762;51.730;5.356;2022-10-04T04:56:01;11.40;80.30
24618;DHT22;12762;51.730;5.356;2022-10-04T04:58:38;11.30;80.20
24618;DHT22;12762;51.730;5.356;2022-10-04T05:01:26;11.30;80.30
24618;DHT22;12762;51.730;5.356;2022-10-04T05:06:40;11.30;80.40
24618;DHT22;12762;51.730;5.356;2022-10-04T05:09:24;11.30;80.50
24618;DHT22;12762;51.730;5.356;2022-10-04T05:11:54;11.20;80.30
24618;DHT22;12762;51.730;5.356;2022-10-04T05:14:22;11.20;80.50
24618;DHT22;12762;51.730;5.356;2022-10-04T05:16:51;11.20;80.50
24618;DHT22;12762;51.730;5.356;2022-10-04T05:19:35;11.20;80.60
24618;DHT22;12762;51.730;5.356;2022-10-04T05:22:11;11.20;80.50
24618;DHT22;12762;51.730;5.356;2022-10-04T05:24:43;11.20;80.70
24618;DHT22;12762;51.730;5.356;2022-10-04T05:27:22;11.10;80.60
24618;DHT22;12762;51.730;5.356;2022-10-04T05:33:04;11.10;80.70
24618;DHT22;12762;51.730;5.356;2022-10-04T05:41:13;11.10;80.90
24618;DHT22;12762;51.730;5.356;2022-10-04T05:43:47;11.10;80.90
24618;DHT22;12762;51.730;5.356;2022-10-04T05:46:25;11.00;81.70
24618;DHT22;12762;51.730;5.356;2022-10-04T05:49:13;11.00;80.90
24618;DHT22;12762;51.730;5.356;2022-10-04T05:51:55;11.00;80.90
24618;DHT22;12762;51.730;5.356;2022-10-04T05:54:28;11.00;81.00
24618;DHT22;12762;51.730;5.356;2022-10-04T06:00:09;11.00;81.20
24618;DHT22;12762;51.730;5.356;2022-10-04T06:02:57;11.10;81.20
24618;DHT22;12762;51.730;5.356;2022-10-04T06:05:53;11.10;81.20
24618;DHT22;12762;51.730;5.356;2022-10-04T06:23:14;11.10;81.20
24618;DHT22;12762;51.730;5.356;2022-10-04T06:25:56;11.10;81.20
24618;DHT22;12762;51.730;5.356;2022-10-04T06:28:35;11.10;81.30
24618;DHT22;12762;51.730;5.356;2022-10-04T06:34:12;11.20;81.20
24618;DHT22;12762;51.730;5.356;2022-10-04T06:45:10;11.30;81.40
24618;DHT22;12762;51.730;5.356;2022-10-04T06:48:27;11.40;81.40
24618;DHT22;12762;51.730;5.356;2022-10-04T06:51:11;11.40;81.30
24618;DHT22;12762;51.730;5.356;2022-10-04T06:59:21;11.50;81.40
24618;DHT22;12762;51.730;5.356;2022-10-04T07:01:52;11.50;81.30
24618;DHT22;12762;51.730;5.356;2022-10-04T07:09:55;11.50;81.30
24618;DHT22;12762;51.730;5.356;2022-10-04T07:12:26;11.50;81.30
24618;DHT22;12762;51.730;5.356;2022-10-04T07:14:56;11.50;81.30
24618;DHT22;12762;51.730;5.356;2022-10-04T07:17:36;11.50;81.30
24618;DHT22;12762;51.730;5.356;2022-10-04T07:20:12;11.50;81.20
24618;DHT22;12762;51.730;5.356;2022-10-04T07:22:49;11.60;81.30
24618;DHT22;12762;51.730;5.356;2022-10-04T07:25:54;11.60;81.20
24618;DHT22;12762;51.730;5.356;2022-10-04T07:28:17;11.60;81.20
24618;DHT22;12762;51.730;5.356;2022-10-04T07:31:12;11.60;81.20
24618;DHT22;12762;51.730;5.356;2022-10-04T07:33:46;11.60;81.20
24618;DHT22;12762;51.730;5.356;2022-10-04T07:36:23;11.60;81.20
24618;DHT22;12762;51.730;5.356;2022-10-04T07:38:55;11.70;81.40
24618;DHT22;12762;51.730;5.356;2022-10-04T07:41:35;11.70;81.40
24618;DHT22;12762;51.730;5.356;2022-10-04T07:44:13;11.80;81.40
24618;DHT22;12762;51.730;5.356;2022-10-04T07:47:12;11.80;81.40
24618;DHT22;12762;51.730;5.356;2022-10-04T07:49:47;11.90;81.40
24618;DHT22;12762;51.730;5.356;2022-10-04T07:55:11;13.60;83.40
24618;DHT22;12762;51.730;5.356;2022-10-04T07:58:39;14.90;81.70
24618;DHT22;12762;51.730;5.356;2022-10-04T08:07:06;17.20;76.60
24618;DHT22;12762;51.730;5.356;2022-10-04T08:21:30;19.30;70.30
24618;DHT22;12762;51.730;5.356;2022-10-04T08:30:11;19.20;69.30
24618;DHT22;12762;51.730;5.356;2022-10-04T08:35:32;18.60;68.40
24618;DHT22;12762;51.730;5.356;2022-10-04T08:38:24;18.30;68.60
24618;DHT22;12762;51.730;5.356;2022-10-04T08:58:21;17.50;70.90
24618;DHT22;12762;51.730;5.356;2022-10-04T09:04:30;17.80;71.50
24618;DHT22;12762;51.730;5.356;2022-10-04T09:22:23;18.50;69.20
24618;DHT22;12762;51.730;5.356;2022-10-04T09:28:31;18.40;69.30
24618;DHT22;12762;51.730;5.356;2022-10-04T09:36:42;18.40;69.50
24618;DHT22;12762;51.730;5.356;2022-10-04T09:39:19;18.40;69.30
24618;DHT22;12762;51.730;5.356;2022-10-04T09:56:06;18.40;69.20
24618;DHT22;12762;51.730;5.356;2022-10-04T10:10:05;18.90;68.70
24618;DHT22;12762;51.730;5.356;2022-10-04T10:13:23;19.00;68.50
24618;DHT22;12762;51.730;5.356;2022-10-04T10:19:00;19.20;68.30
24618;DHT22;12762;51.730;5.356;2022-10-04T10:24:35;19.40;67.40
24618;DHT22;12762;51.730;5.356;2022-10-04T10:27:19;19.40;66.70
24618;DHT22;12762;51.730;5.356;2022-10-04T10:30:19;19.40;66.90
24618;DHT22;12762;51.730;5.356;2022-10-04T10:33:02;19.50;65.30
24618;DHT22;12762;51.730;5.356;2022-10-04T10:38:28;19.50;66.10
24618;DHT22;12762;51.730;5.356;2022-10-04T10:54:57;19.60;64.90
24618;DHT22;12762;51.730;5.356;2022-10-04T11:03:38;19.60;65.00
24618;DHT22;12762;51.730;5.356;2022-10-04T11:06:32;19.70;65.10
24618;DHT22;12762;51.730;5.356;2022-10-04T11:23:45;20.00;64.60
24618;DHT22;12762;51.730;5.356;2022-10-04T11:26:42;20.20;64.50
24618;DHT22;12762;51.730;5.356;2022-10-04T11:43:36;20.50;63.30
24618;DHT22;12762;51.730;5.356;2022-10-04T11:48:56;20.70;62.60
24618;DHT22;12762;51.730;5.356;2022-10-04T12:02:34;20.80;61.90
24618;DHT22;12762;51.730;5.356;2022-10-04T12:28:56;21.30;61.80
24618;DHT22;12762;51.730;5.356;2022-10-04T12:31:36;21.50;61.70
24618;DHT22;12762;51.730;5.356;2022-10-04T12:34:17;21.60;61.40
24618;DHT22;12762;51.730;5.356;2022-10-04T12:37:16;21.70;61.00
24618;DHT22;12762;51.730;5.356;2022-10-04T12:53:39;21.70;59.10
24618;DHT22;12762;51.730;5.356;2022-10-04T12:56:19;21.80;59.30
24618;DHT22;12762;51.730;5.356;2022-10-04T13:30:06;22.20;57.90
24618;DHT22;12762;51.730;5.356;2022-10-04T13:32:48;22.30;57.90
24618;DHT22;12762;51.730;5.356;2022-10-04T13:35:29;22.50;57.60
24618;DHT22;12762;51.730;5.356;2022-10-04T13:56:17;22.50;57.00
24618;DHT22;12762;51.730;5.356;2022-10-04T14:28:24;22.10;58.20
24618;DHT22;12762;51.730;5.356;2022-10-04T14:31:11;22.20;58.00
24618;DHT22;12762;51.730;5.356;2022-10-04T14:42:52;22.10;57.30
24618;DHT22;12762;51.730;5.356;2022-10-04T14:45:37;21.90;57.00
24618;DHT22;12762;51.730;5.356;2022-10-04T14:48:24;21.90;57.50
24618;DHT22;12762;51.730;5.356;2022-10-04T14:59:02;21.50;57.80
24618;DHT22;12762;51.730;5.356;2022-10-04T15:01:36;21.50;58.20
24618;DHT22;12762;51.730;5.356;2022-10-04T15:04:26;21.40;58.10
24618;DHT22;12762;51.730;5.356;2022-10-04T15:15:29;21.50;58.30
24618;DHT22;12762;51.730;5.356;2022-10-04T15:18:24;21.40;58.20
24618;DHT22;12762;51.730;5.356;2022-10-04T15:23:42;21.20;58.40
24618;DHT22;12762;51.730;5.356;2022-10-04T15:28:54;21.00;58.60
24618;DHT22;12762;51.730;5.356;2022-10-04T15:37:33;20.80;58.70
24618;DHT22;12762;51.730;5.356;2022-10-04T15:49:03;20.50;59.20
24618;DHT22;12762;51.730;5.356;2022-10-04T15:54:45;20.40;59.50
24618;DHT22;12762;51.730;5.356;2022-10-04T15:57:34;20.30;59.60
24618;DHT22;12762;51.730;5.356;2022-10-04T16:00:24;20.20;59.70
24618;DHT22;12762;51.730;5.356;2022-10-04T16:05:45;20.10;60.10
24618;DHT22;12762;51.730;5.356;2022-10-04T16:08:49;20.10;60.20
24618;DHT22;12762;51.730;5.356;2022-10-04T16:11:34;20.00;60.50
24618;DHT22;12762;51.730;5.356;2022-10-04T16:19:51;19.90;60.90
24618;DHT22;12762;51.730;5.356;2022-10-04T16:22:33;19.80;61.00
24618;DHT22;12762;51.730;5.356;2022-10-04T16:30:42;19.70;61.50
24618;DHT22;12762;51.730;5.356;2022-10-04T16:33:23;19.60;61.50
24618;DHT22;12762;51.730;5.356;2022-10-04T16:38:34;19.50;61.90
24618;DHT22;12762;51.730;5.356;2022-10-04T16:41:12;19.40;62.00
24618;DHT22;12762;51.730;5.356;2022-10-04T16:43:52;19.40;62.20
24618;DHT22;12762;51.730;5.356;2022-10-04T16:46:35;19.30;62.30
24618;DHT22;12762;51.730;5.356;2022-10-04T17:06:47;18.80;63.40
24618;DHT22;12762;51.730;5.356;2022-10-04T17:09:36;18.80;63.40
24618;DHT22;12762;51.730;5.356;2022-10-04T17:15:18;18.70;63.70
24618;DHT22;12762;51.730;5.356;2022-10-04T17:18:11;18.70;63.90
24618;DHT22;12762;51.730;5.356;2022-10-04T17:37:14;18.40;64.50
24618;DHT22;12762;51.730;5.356;2022-10-04T17:39:51;18.30;64.60
24618;DHT22;12762;51.730;5.356;2022-10-04T17:42:34;18.30;64.80
24618;DHT22;12762;51.730;5.356;2022-10-04T17:45:27;18.20;64.80
24618;DHT22;12762;51.730;5.356;2022-10-04T17:49:01;18.10;64.80
24618;DHT22;12762;51.730;5.356;2022-10-04T17:54:51;18.00;65.20
24618;DHT22;12762;51.730;5.356;2022-10-04T18:00:22;17.90;65.50
24618;DHT22;12762;51.730;5.356;2022-10-04T18:03:10;17.80;65.70
24618;DHT22;12762;51.730;5.356;2022-10-04T18:08:12;17.70;66.00
24618;DHT22;12762;51.730;5.356;2022-10-04T18:10:48;17.60;66.10
24618;DHT22;12762;51.730;5.356;2022-10-04T18:18:46;17.50;66.50
24618;DHT22;12762;51.730;5.356;2022-10-04T18:24:17;17.40;67.50
24618;DHT22;12762;51.730;5.356;2022-10-04T18:27:00;17.30;66.80
24618;DHT22;12762;51.730;5.356;2022-10-04T18:29:38;17.30;66.80
24618;DHT22;12762;51.730;5.356;2022-10-04T18:34:55;17.30;67.00
24618;DHT22;12762;51.730;5.356;2022-10-04T18:37:33;17.30;67.10
24618;DHT22;12762;51.730;5.356;2022-10-04T18:40:23;17.30;67.10
24618;DHT22;12762;51.730;5.356;2022-10-04T18:42:56;17.40;67.10
24618;DHT22;12762;51.730;5.356;2022-10-04T18:45:31;17.30;67.20
24618;DHT22;12762;51.730;5.356;2022-10-04T18:48:14;17.40;67.30
24618;DHT22;12762;51.730;5.356;2022-10-04T18:50:44;17.40;67.30
24618;DHT22;12762;51.730;5.356;2022-10-04T18:55:56;17.40;67.30
24618;DHT22;12762;51.730;5.356;2022-10-04T19:07:18;17.40;67.30
24618;DHT22;12762;51.730;5.356;2022-10-04T19:12:36;17.40;68.10
24618;DHT22;12762;51.730;5.356;2022-10-04T19:15:21;17.40;67.30
24618;DHT22;12762;51.730;5.356;2022-10-04T19:20:41;17.40;67.40
24618;DHT22;12762;51.730;5.356;2022-10-04T19:26:30;17.30;67.40
24618;DHT22;12762;51.730;5.356;2022-10-04T19:29:06;17.30;67.40
24618;DHT22;12762;51.730;5.356;2022-10-04T19:32:53;17.30;67.50
24618;DHT22;12762;51.730;5.356;2022-10-04T19:37:56;17.20;67.50
24618;DHT22;12762;51.730;5.356;2022-10-04T19:40:35;17.20;67.60
24618;DHT22;12762;51.730;5.356;2022-10-04T19:43:08;17.20;67.70
24618;DHT22;12762;51.730;5.356;2022-10-04T19:48:25;17.10;67.80
24618;DHT22;12762;51.730;5.356;2022-10-04T19:51:11;17.10;68.70
24618;DHT22;12762;51.730;5.356;2022-10-04T19:53:42;17.10;68.00
24618;DHT22;12762;51.730;5.356;2022-10-04T19:56:23;17.10;67.90
24618;DHT22;12762;51.730;5.356;2022-10-04T19:58:53;17.10;68.00
24618;DHT22;12762;51.730;5.356;2022-10-04T20:01:24;17.20;68.10
24618;DHT22;12762;51.730;5.356;2022-10-04T20:03:52;17.10;68.00
24618;DHT22;12762;51.730;5.356;2022-10-04T20:06:46;17.10;68.10
24618;DHT22;12762;51.730;5.356;2022-10-04T20:09:25;17.10;68.00
24618;DHT22;12762;51.730;5.356;2022-10-04T20:11:55;17.10;68.00
24618;DHT22;12762;51.730;5.356;2022-10-04T20:21:54;17.10;68.10
24618;DHT22;12762;51.730;5.356;2022-10-04T20:34:53;17.10;68.20
24618;DHT22;12762;51.730;5.356;2022-10-04T20:37:20;17.10;68.30
24618;DHT22;12762;51.730;5.356;2022-10-04T20:42:38;17.10;68.30
24618;DHT22;12762;51.730;5.356;2022-10-04T20:52:37;17.00;68.50
24618;DHT22;12762;51.730;5.356;2022-10-04T20:55:17;17.00;68.50
24618;DHT22;12762;51.730;5.356;2022-10-04T20:57:45;17.00;68.60
24618;DHT22;12762;51.730;5.356;2022-10-04T21:00:20;17.00;68.60
24618;DHT22;12762;51.730;5.356;2022-10-04T21:03:08;17.00;68.70
24618;DHT22;12762;51.730;5.356;2022-10-04T21:05:35;17.00;68.70
24618;DHT22;12762;51.730;5.356;2022-10-04T21:08:31;17.00;68.80
24618;DHT22;12762;51.730;5.356;2022-10-04T21:11:08;17.00;68.70
24618;DHT22;12762;51.730;5.356;2022-10-04T21:13:58;17.00;68.90
24618;DHT22;12762;51.730;5.356;2022-10-04T21:16:39;17.00;68.90
24618;DHT22;12762;51.730;5.356;2022-10-04T21:21:59;17.00;69.00
24618;DHT22;12762;51.730;5.356;2022-10-04T21:24:53;16.90;69.00
24618;DHT22;12762;51.730;5.356;2022-10-04T21:27:34;16.90;69.00
24618;DHT22;12762;51.730;5.356;2022-10-04T21:32:35;16.90;69.10
24618;DHT22;12762;51.730;5.356;2022-10-04T21:35:04;16.90;69.10
24618;DHT22;12762;51.730;5.356;2022-10-04T21:37:31;16.90;69.20
24618;DHT22;12762;51.730;5.356;2022-10-04T21:39:58;16.90;69.20
24618;DHT22;12762;51.730;5.356;2022-10-04T21:42:28;16.90;69.20
24618;DHT22;12762;51.730;5.356;2022-10-04T21:44:55;16.90;69.30
24618;DHT22;12762;51.730;5.356;2022-10-04T21:47:21;16.90;69.20
24618;DHT22;12762;51.730;5.356;2022-10-04T21:49:49;16.90;69.30
24618;DHT22;12762;51.730;5.356;2022-10-04T21:52:17;16.90;69.40
24618;DHT22;12762;51.730;5.356;2022-10-04T21:54:44;16.90;69.50
24618;DHT22;12762;51.730;5.356;2022-10-04T21:57:12;16.90;69.40
24618;DHT22;12762;51.730;5.356;2022-10-04T21:59:39;16.90;69.50
24618;DHT22;12762;51.730;5.356;2022-10-04T22:02:05;17.00;69.60
24618;DHT22;12762;51.730;5.356;2022-10-04T22:04:35;16.90;69.50
24618;DHT22;12762;51.730;5.356;2022-10-04T22:07:06;16.90;69.60
24618;DHT22;12762;51.730;5.356;2022-10-04T22:09:33;16.90;69.70
24618;DHT22;12762;51.730;5.356;2022-10-04T22:12:01;16.90;69.70
24618;DHT22;12762;51.730;5.356;2022-10-04T22:14:28;16.90;69.70
24618;DHT22;12762;51.730;5.356;2022-10-04T22:16:55;16.90;69.80
24618;DHT22;12762;51.730;5.356;2022-10-04T22:19:22;16.90;69.80
24618;DHT22;12762;51.730;5.356;2022-10-04T22:21:48;16.90;69.90
24618;DHT22;12762;51.730;5.356;2022-10-04T22:24:18;16.90;70.00
24618;DHT22;12762;51.730;5.356;2022-10-04T22:26:46;16.80;70.00
24618;DHT22;12762;51.730;5.356;2022-10-04T22:29:16;16.80;69.90
24618;DHT22;12762;51.730;5.356;2022-10-04T22:31:48;16.80;70.00
24618;DHT22;12762;51.730;5.356;2022-10-04T22:34:18;16.80;70.20
24618;DHT22;12762;51.730;5.356;2022-10-04T22:36:47;16.80;70.20
24618;DHT22;12762;51.730;5.356;2022-10-04T22:39:17;16.80;70.30
24618;DHT22;12762;51.730;5.356;2022-10-04T22:41:51;16.80;70.30
24618;DHT22;12762;51.730;5.356;2022-10-04T22:44:28;16.70;70.30
24618;DHT22;12762;51.730;5.356;2022-10-04T22:46:58;16.70;70.30
24618;DHT22;12762;51.730;5.356;2022-10-04T22:49:30;16.70;70.40
24618;DHT22;12762;51.730;5.356;2022-10-04T22:51:58;16.70;70.40
24618;DHT22;12762;51.730;5.356;2022-10-04T22:54:33;16.70;70.40
24618;DHT22;12762;51.730;5.356;2022-10-04T22:57:00;16.70;70.60
24618;DHT22;12762;51.730;5.356;2022-10-04T22:59:47;16.70;70.50
24618;DHT22;12762;51.730;5.356;2022-10-04T23:02:19;16.70;70.50
24618;DHT22;12762;51.730;5.356;2022-10-04T23:04:52;16.70;70.60
24618;DHT22;12762;51.730;5.356;2022-10-04T23:07:20;16.70;70.70
24618;DHT22;12762;51.730;5.356;2022-10-04T23:09:47;16.70;70.70
24618;DHT22;12762;51.730;5.356;2022-10-04T23:12:14;16.70;70.80
24618;DHT22;12762;51.730;5.356;2022-10-04T23:14:41;16.70;70.80
24618;DHT22;12762;51.730;5.356;2022-10-04T23:17:30;16.70;70.90
24618;DHT22;12762;51.730;5.356;2022-10-04T23:20:12;16.70;70.90
24618;DHT22;12762;51.730;5.356;2022-10-04T23:22:42;16.70;70.90
24618;DHT22;12762;51.730;5.356;2022-10-04T23:25:17;16.70;70.90
24618;DHT22;12762;51.730;5.356;2022-10-04T23:27:45;16.70;71.00
24618;DHT22;12762;51.730;5.356;2022-10-04T23:30:14;16.70;71.00
24618;DHT22;12762;51.730;5.356;2022-10-04T23:32:43;16.70;71.00
24618;DHT22;12762;51.730;5.356;2022-10-04T23:35:16;16.70;71.10
24618;DHT22;12762;51.730;5.356;2022-10-04T23:37:44;16.70;71.20
24618;DHT22;12762;51.730;5.356;2022-10-04T23:40:12;16.70;71.20
24618;DHT22;12762;51.730;5.356;2022-10-04T23:42:40;16.70;71.20
24618;DHT22;12762;51.730;5.356;2022-10-04T23:45:23;16.70;71.30
24618;DHT22;12762;51.730;5.356;2022-10-04T23:47:55;16.70;71.20
24618;DHT22;12762;51.730;5.356;2022-10-04T23:50:26;16.70;71.30
24618;DHT22;12762;51.730;5.356;2022-10-04T23:52:56;16.70;71.40
24618;DHT22;12762;51.730;5.356;2022-10-04T23:55:31;16.70;71.40
24618;DHT22;12762;51.730;5.356;2022-10-04T23:57:59;16.70;71.40
